createdAt,value
2022-08-02T00:00:29.397Z,19.60
2022-08-02T00:02:56.348Z,19.50
2022-08-02T00:05:23.482Z,19.50
2022-08-02T00:12:45.290Z,19.50
2022-08-02T00:15:16.336Z,19.30
2022-08-02T00:17:44.713Z,19.10
2022-08-02T00:20:13.591Z,19.10
2022-08-02T00:22:40.634Z,19.10
2022-08-02T00:25:08.025Z,19.10
2022-08-02T00:27:35.163Z,19.30
2022-08-02T00:30:02.209Z,19.30
2022-08-02T00:32:29.283Z,19.40
2022-08-02T00:34:56.274Z,19.50
2022-08-02T00:37:23.253Z,19.60
2022-08-02T00:39:50.297Z,19.60
2022-08-02T00:42:17.440Z,19.70
2022-08-02T00:44:44.703Z,19.70
2022-08-02T00:47:19.011Z,19.50
2022-08-02T00:49:47.182Z,19.40
2022-08-02T00:54:42.555Z,19.10
2022-08-02T00:57:09.683Z,18.90
2022-08-02T00:59:36.820Z,18.90
2022-08-02T01:02:04.036Z,18.70
2022-08-02T01:04:32.294Z,18.60
2022-08-02T01:07:01.390Z,18.40
2022-08-02T01:09:28.579Z,18.40
2022-08-02T01:11:55.858Z,18.30
2022-08-02T01:14:24.986Z,18.30
2022-08-02T01:17:19.673Z,18.40
2022-08-02T01:20:15.789Z,18.30
2022-08-02T01:23:29.001Z,18.20
2022-08-02T01:26:44.277Z,18.20
2022-08-02T01:29:34.613Z,18.10
2022-08-02T01:32:12.341Z,18.10
2022-08-02T01:35:01.913Z,18.10
2022-08-02T01:37:33.527Z,18.10
2022-08-02T01:40:10.673Z,18.10
2022-08-02T01:42:42.191Z,18.10
2022-08-02T01:45:12.650Z,18.20
2022-08-02T01:47:41.532Z,18.20
2022-08-02T01:50:13.468Z,18.20
2022-08-02T01:52:53.114Z,18.20
2022-08-02T01:55:33.447Z,18.20
2022-08-02T01:58:05.464Z,18.10
2022-08-02T02:00:38.965Z,18.00
2022-08-02T02:03:13.946Z,17.90
2022-08-02T02:05:42.269Z,17.80
2022-08-02T02:08:10.738Z,17.70
2022-08-02T02:10:40.227Z,17.70
2022-08-02T02:13:17.540Z,17.70
2022-08-02T02:15:48.554Z,17.60
2022-08-02T02:18:23.293Z,17.60
2022-08-02T02:20:51.529Z,17.60
2022-08-02T02:23:19.210Z,17.60
2022-08-02T02:25:55.874Z,17.70
2022-08-02T02:28:36.036Z,17.70
2022-08-02T02:31:13.873Z,17.80
2022-08-02T02:33:50.510Z,17.90
2022-08-02T02:36:19.421Z,17.90
2022-08-02T02:38:48.734Z,17.70
2022-08-02T02:41:18.992Z,17.60
2022-08-02T02:43:47.552Z,17.60
2022-08-02T02:46:17.470Z,17.60
2022-08-02T02:48:44.885Z,17.40
2022-08-02T02:51:13.940Z,17.30
2022-08-02T02:54:32.389Z,17.30
2022-08-02T02:56:31.226Z,17.20
2022-08-02T02:59:00.673Z,17.20
2022-08-02T03:01:55.353Z,16.90
2022-08-02T03:04:16.169Z,16.90
2022-08-02T03:06:43.353Z,16.80
2022-08-02T03:09:11.594Z,16.70
2022-08-02T03:11:39.310Z,16.60
2022-08-02T03:14:11.801Z,16.50
2022-08-02T03:16:52.526Z,16.60
2022-08-02T03:19:21.916Z,16.70
2022-08-02T03:22:07.459Z,16.70
2022-08-02T03:24:34.520Z,16.80
2022-08-02T03:27:02.741Z,16.80
2022-08-02T03:29:34.647Z,16.90
2022-08-02T03:32:02.102Z,16.90
2022-08-02T03:34:29.555Z,16.90
2022-08-02T03:36:58.140Z,16.90
2022-08-02T03:39:26.676Z,16.70
2022-08-02T03:41:54.862Z,16.70
2022-08-02T03:44:23.042Z,16.70
2022-08-02T03:46:51.046Z,16.70
2022-08-02T03:49:18.566Z,16.80
2022-08-02T03:51:46.675Z,16.80
2022-08-02T03:54:14.466Z,16.80
2022-08-02T03:56:41.710Z,16.80
2022-08-02T03:59:14.339Z,16.80
2022-08-02T04:01:42.026Z,16.80
2022-08-02T04:04:09.531Z,16.90
2022-08-02T04:06:39.959Z,16.90
2022-08-02T04:09:07.316Z,16.90
2022-08-02T04:11:34.481Z,16.90
2022-08-02T04:14:07.757Z,16.90
2022-08-02T04:16:50.753Z,17.00
2022-08-02T04:19:42.813Z,17.10
2022-08-02T04:22:17.359Z,17.20
2022-08-02T04:24:51.077Z,17.40
2022-08-02T04:28:15.252Z,17.60
2022-08-02T04:30:08.371Z,17.60
2022-08-02T04:32:36.111Z,17.60
2022-08-02T04:35:20.238Z,17.50
2022-08-02T04:38:08.310Z,17.50
2022-08-02T04:40:36.193Z,17.50
2022-08-02T04:43:03.237Z,17.40
2022-08-02T04:45:31.029Z,17.40
2022-08-02T04:48:06.135Z,17.40
2022-08-02T04:50:34.576Z,17.40
2022-08-02T04:53:02.015Z,17.40
2022-08-02T04:55:29.884Z,17.50
2022-08-02T04:57:58.535Z,17.50
2022-08-02T05:00:28.089Z,17.40
2022-08-02T05:02:59.891Z,17.40
2022-08-02T05:05:27.600Z,17.30
2022-08-02T05:07:55.002Z,17.20
2022-08-02T05:10:22.635Z,17.40
2022-08-02T05:12:50.389Z,17.50
2022-08-02T05:15:18.646Z,17.70
2022-08-02T05:17:48.715Z,17.90
2022-08-02T05:20:19.714Z,18.40
2022-08-02T05:22:47.098Z,19.10
2022-08-02T05:25:14.582Z,19.60
2022-08-02T05:27:41.676Z,20.10
2022-08-02T05:30:09.918Z,20.70
2022-08-02T06:42:04.094Z,29.10
2022-08-02T06:44:49.990Z,29.00
2022-08-02T06:47:18.942Z,29.50
2022-08-02T06:49:52.131Z,29.70
2022-08-02T06:52:31.307Z,29.60
2022-08-02T06:55:04.336Z,29.40
2022-08-02T06:57:32.508Z,28.80
2022-08-02T07:00:02.594Z,28.40
2022-08-02T07:02:33.319Z,28.60
2022-08-02T07:05:00.609Z,29.20
2022-08-02T07:07:28.339Z,28.80
2022-08-02T07:10:00.878Z,29.00
2022-08-02T07:12:33.948Z,28.80
2022-08-02T07:15:05.195Z,28.60
2022-08-02T07:17:33.066Z,28.50
2022-08-02T07:20:00.940Z,28.90
2022-08-02T07:22:28.515Z,28.50
2022-08-02T07:24:58.278Z,28.50
2022-08-02T07:27:26.029Z,28.50
2022-08-02T07:29:54.185Z,28.50
2022-08-02T07:32:25.506Z,28.40
2022-08-02T07:34:54.074Z,28.80
2022-08-02T07:37:53.655Z,29.10
2022-08-02T07:40:20.306Z,29.00
2022-08-02T07:42:56.456Z,29.20
2022-08-02T07:45:27.988Z,29.30
2022-08-02T07:47:56.854Z,29.30
2022-08-02T07:50:24.108Z,29.40
2022-08-02T07:52:57.159Z,29.30
2022-08-02T07:55:39.958Z,29.30
2022-08-02T07:58:12.587Z,29.90
2022-08-02T08:00:44.795Z,29.80
2022-08-02T08:03:12.643Z,29.80
2022-08-02T08:05:40.641Z,29.60
2022-08-02T08:08:09.413Z,28.70
2022-08-02T08:10:40.522Z,27.80
2022-08-02T08:13:07.612Z,28.00
2022-08-02T08:15:34.597Z,28.30
2022-08-02T08:18:01.546Z,29.00
2022-08-02T08:20:28.837Z,28.90
2022-08-02T08:22:55.779Z,29.10
2022-08-02T08:25:22.761Z,28.90
2022-08-02T08:27:54.213Z,29.10
2022-08-02T08:30:23.457Z,28.80
2022-08-02T08:32:50.548Z,28.80
2022-08-02T08:35:17.702Z,29.20
2022-08-02T08:37:44.885Z,29.50
2022-08-02T08:40:12.732Z,29.50
2022-08-02T08:42:40.174Z,29.90
2022-08-02T08:45:09.012Z,29.90
2022-08-02T08:47:38.809Z,30.40
2022-08-02T08:50:25.154Z,30.70
2022-08-02T08:53:08.690Z,31.20
2022-08-02T08:55:39.368Z,31.60
2022-08-02T08:58:06.984Z,31.90
2022-08-02T09:00:36.245Z,31.60
2022-08-02T09:03:07.159Z,32.10
2022-08-02T09:05:39.126Z,31.60
2022-08-02T09:08:07.615Z,29.70
2022-08-02T09:10:37.739Z,29.50
2022-08-02T09:13:38.534Z,29.70
2022-08-02T09:18:47.595Z,29.50
2022-08-02T09:54:25.197Z,34.50
2022-08-02T09:57:01.594Z,34.80
2022-08-02T09:59:30.831Z,35.00
2022-08-02T10:02:02.346Z,35.00
2022-08-02T10:04:33.728Z,35.30
2022-08-02T10:07:05.355Z,34.80
2022-08-02T10:09:33.075Z,35.10
2022-08-02T10:12:01.608Z,35.80
2022-08-02T10:14:28.782Z,35.30
2022-08-02T11:07:20.009Z,32.30
2022-08-02T11:36:51.093Z,38.20
2022-08-02T11:39:21.133Z,38.70
2022-08-02T11:54:35.890Z,36.30
2022-08-02T11:57:22.218Z,37.00
2022-08-02T11:59:55.409Z,37.50
2022-08-02T12:02:31.547Z,38.00
2022-08-02T12:05:05.642Z,38.50
2022-08-02T12:10:18.874Z,37.40
2022-08-02T12:52:39.320Z,35.50
2022-08-02T12:55:22.279Z,35.70
2022-08-02T12:58:00.688Z,35.80
2022-08-02T13:00:37.329Z,35.80
2022-08-02T13:08:25.125Z,33.30
2022-08-02T13:10:52.122Z,33.40
2022-08-02T13:13:19.109Z,33.70
2022-08-02T13:15:50.310Z,34.10
2022-08-02T13:18:18.439Z,34.00
2022-08-02T13:20:45.928Z,34.10
2022-08-02T14:36:42.327Z,31.20
2022-08-02T14:46:52.870Z,30.60
2022-08-02T14:49:25.388Z,31.00
2022-08-02T14:51:54.905Z,31.20
2022-08-02T14:54:27.686Z,31.40
2022-08-02T14:57:02.150Z,31.50
2022-08-02T14:59:29.971Z,31.60
2022-08-02T18:09:44.489Z,28.70
2022-08-02T18:12:14.958Z,28.70
2022-08-02T18:14:46.167Z,28.50
2022-08-02T18:17:16.572Z,28.30
2022-08-02T18:19:55.460Z,28.20
2022-08-02T18:22:24.897Z,28.10
2022-08-02T18:55:59.722Z,26.60
2022-08-02T18:58:19.285Z,26.60
2022-08-02T19:00:51.730Z,26.50
2022-08-02T19:03:19.487Z,26.40
2022-08-02T19:05:53.425Z,26.20
2022-08-02T19:08:25.577Z,26.00
2022-08-02T19:10:55.225Z,25.70
2022-08-02T19:13:24.306Z,25.50
2022-08-02T19:15:52.354Z,25.40
2022-08-02T19:18:19.502Z,25.30
2022-08-02T19:20:57.171Z,25.20
2022-08-02T19:23:29.562Z,25.10
2022-08-02T19:25:56.988Z,24.90
2022-08-02T19:28:26.115Z,24.70
2022-08-02T19:30:55.172Z,24.50
2022-08-02T19:33:54.789Z,24.40
2022-08-02T19:36:09.754Z,24.40
2022-08-02T19:38:43.781Z,24.40
2022-08-02T19:41:13.583Z,24.30
2022-08-02T19:44:26.415Z,24.20
2022-08-02T19:46:29.844Z,24.20
2022-08-02T19:48:57.182Z,24.10
2022-08-02T19:51:54.491Z,24.10
2022-08-02T19:54:12.176Z,24.00
2022-08-02T19:56:40.377Z,24.00
2022-08-02T19:59:12.933Z,24.00
2022-08-02T20:01:46.355Z,23.90
2022-08-02T20:04:22.845Z,23.80
2022-08-02T20:06:50.757Z,23.70
2022-08-02T20:09:22.545Z,23.70
2022-08-02T20:11:54.602Z,23.60
2022-08-02T20:14:26.578Z,23.60
2022-08-02T20:16:58.542Z,23.40
2022-08-02T20:19:29.013Z,23.30
2022-08-02T20:22:00.099Z,23.00
2022-08-02T20:24:28.282Z,22.60
2022-08-02T20:26:59.384Z,22.30
2022-08-02T20:29:42.750Z,22.20
2022-08-02T20:32:11.889Z,22.20
2022-08-02T20:34:38.935Z,22.20
2022-08-02T20:37:56.203Z,22.20
2022-08-02T20:39:53.778Z,22.20
2022-08-02T20:45:08.909Z,22.10
2022-08-02T20:47:40.353Z,22.10
2022-08-02T20:50:30.480Z,22.10
2022-08-02T20:53:02.598Z,22.10
2022-08-02T20:55:31.845Z,21.90
2022-08-02T20:58:04.338Z,21.90
2022-08-02T21:00:32.059Z,21.90
2022-08-02T21:03:00.681Z,21.80
2022-08-02T21:05:54.112Z,21.70
2022-08-02T21:08:15.847Z,21.60
2022-08-02T21:10:52.171Z,21.40
2022-08-02T21:13:23.065Z,21.40
2022-08-02T21:15:52.102Z,21.30
2022-08-02T21:18:24.025Z,21.30
2022-08-02T21:21:04.992Z,21.20
2022-08-02T21:23:36.375Z,21.10
2022-08-02T21:26:09.058Z,21.10
2022-08-02T21:28:44.987Z,21.00
2022-08-02T21:31:15.578Z,20.90
2022-08-02T21:33:58.115Z,20.90
2022-08-02T21:39:05.012Z,20.50
2022-08-02T21:41:46.514Z,20.20
2022-08-02T21:44:19.669Z,20.10
2022-08-02T21:46:52.438Z,20.00
2022-08-02T21:49:40.983Z,20.00
2022-08-02T21:52:08.687Z,20.00
2022-08-02T21:54:35.866Z,20.00
2022-08-02T21:57:07.800Z,20.10
2022-08-02T21:59:47.226Z,20.10
2022-08-02T22:02:16.549Z,20.00
2022-08-02T22:04:47.951Z,19.90
2022-08-02T22:07:23.872Z,19.90
2022-08-02T22:09:52.837Z,20.00
2022-08-02T22:12:21.928Z,20.00
2022-08-02T22:14:55.751Z,20.00
2022-08-02T22:17:51.542Z,19.90
2022-08-02T22:20:19.975Z,19.80
2022-08-02T22:23:02.528Z,19.80
2022-08-02T22:28:38.824Z,19.90
2022-08-02T22:31:05.535Z,19.80
2022-08-02T22:36:38.760Z,19.70
2022-08-02T22:39:19.141Z,19.40
2022-08-02T22:42:05.880Z,19.30
2022-08-02T22:44:34.758Z,19.30
2022-08-02T22:47:07.070Z,19.40
2022-08-02T22:49:51.691Z,19.50
2022-08-02T22:52:22.036Z,19.60
2022-08-02T22:54:50.884Z,19.60
2022-08-02T22:57:30.131Z,19.60
2022-08-02T22:58:56.096Z,22.20
2022-08-02T23:00:00.138Z,19.50
2022-08-02T23:02:27.574Z,19.40
2022-08-02T23:04:54.797Z,19.40
2022-08-02T23:07:21.790Z,19.30
2022-08-02T23:09:48.794Z,19.30
2022-08-02T23:12:19.241Z,19.30
2022-08-02T23:17:32.965Z,19.10
2022-08-02T23:19:59.968Z,18.90
2022-08-02T23:22:29.688Z,18.60
2022-08-02T23:25:01.126Z,18.50
2022-08-02T23:27:29.836Z,18.30
2022-08-02T23:29:57.292Z,18.30
2022-08-02T23:32:25.490Z,18.30
2022-08-02T23:34:54.305Z,18.30
2022-08-02T23:37:22.517Z,18.20
2022-08-02T23:39:50.503Z,18.20
2022-08-02T23:42:17.723Z,18.20
2022-08-02T23:44:44.908Z,18.20
2022-08-02T23:47:12.038Z,18.20
2022-08-02T23:49:39.101Z,18.30
2022-08-02T23:52:06.159Z,18.40
2022-08-02T23:54:33.178Z,18.60
2022-08-02T23:57:00.298Z,18.60
2022-08-02T23:59:47.323Z,18.60
